Terminal Aerodrome Forecast
Issued by NWS Greer, SC

Home | Current Version | Previous Version | Text Only | Print | Product List | Glossary On
Versions: 1 2 3 4 5 6 7 8 9 10 11 12 13 14 15 16 17 18 19 20 21 22 23 24 25 26 27 28 29 30 31 32 33 34
000
FTUS42 KGSP 061344 AAA
TAFAVL
TAF AMD
KAVL 061344Z 0614/0712 18010KT 4SM -RA BR SCT007 OVC014
      TEMPO 0614/0618 2SM RA BR SCT003 OVC007
     FM061800 15006KT 5SM BR BKN006
     FM062100 22005KT 5SM BR SCT008 BKN025
     FM070600 33009KT 2SM BR BKN035=

USA.gov is the U.S. government's official web portal to all federal, state and local government web resources and services.